Pagrindinis puslapis
METAR-TAF:

METAR-TAF

Oro uostai :

Marsa Alam, Egiptas

platuma: 25-33-25N, ilguma: 34-35-01E, Aukštis: 77 m

Dabartinis oras

Ataskaita buvo paskelbta 24 minutes, ne 11:00 UTC
Vėjas 11 kt iš Šiaurės/Šiaurės Vakarų
Temperatūra 24°C
Drėgmė 47%
Slėgis 1016 hPa
Matomumas 10 km arba daugiau
nėra debesų žemiau 1500 m ir nėra kamuolinių lietaus debesų

METAR: HEMA 071100Z 33011KT CAVOK 24/12 Q1016 NOSIG

Laikas: 13:24 (11:24 UTC)

Prognozė

Ataskaita buvo paskelbta 6 valandos ir 24 minutes, ne 05:00 UTC
Prognozė galioja nuo 07 metu 06 UTC su 08 metu 12 UTC
Vėjas 15 kt iš Šiaurės
Matomumas 10 km arba daugiau
nėra debesų žemiau 1500 m ir nėra kamuolinių lietaus debesų

TAF: HEMA 070500Z 0706/0812 01015KT CAVOK

Orai ataskaitas ir orų prognozės (METAR, TAF).

turimą stotys yra geltonos ir raudonos taškus žemėlapyje.

Perkelti pele per norėdami pamatyti stoties vardą.

Tada spustelėkite, norėdami matyti oro stebėjimo ir prognozės.

Norėdami pakeisti žemėlapį: spustelėkite ant žalios mygtukų su juodo kryžiaus žemyn,; žalią mygtuką su brūkšneliu, jei norite nutolinti; arba žalių rodyklių gretimoms žemėlapius.


METAR-TAF: